Hauptseite
METAR-TAF:

METAR-TAF

Flughäfen :

Flughafen Piarco

Port-of-Spain, Trinidad, Trinidad und Tobago

Breite: 10-37N, Länge: 061-21W, Höhe: 12 m

Beobachtung

Neuester Wetterbericht von vor 19 Minuten, um 10:00 UTC
Wind 4 kt aus Ost/Südost
Temperatur 24°C
Luftfeuchtigkeit 94%
Luftdruck 1015 hPa
Sichtweite 10 km oder mehr
Leicht bewölkt in der Höhe von 1600 ft

METAR: TTPP 121000Z 11004KT 9999 FEW016 24/23 Q1015 NOSIG

Zeit: 06:19 (10:19 UTC)

Prognose

Neuester Wetterbericht von vor 6 Stunden und 19 Minuten, um 04:00 UTC
Gültige Prognose vom 12 um 06 UTC bis 13 um 06 UTC
Wind 5 kt aus Ost
Sichtweite 10 km oder mehr
Leicht bewölkt in der Höhe von 1600 ft
Übergehend zu
vom 12 um 11 UTC bis 12 um 13 UTC
Wind 14 kt aus Ost
Aufgelockert bewölkt in der Höhe von 2000 ft

TAF: TTPP 120400Z 1206/1306 10005KT 9999 FEW016 BECMG 1211/1213 10014KT SCT020

Wetterbeobachtungen und Prognosen von mehr als 4000 Flughäfen (METAR und TAF Bericht).

Die verfügbaren Stationen werden durch gelbe und rote Markierungen auf der Karte dargestellt.

Führen Sie die Maus auf sie, um den Namen der Station zu sehen.

Darauf klicken, um die Beobachtung von Wetterbeobachtungen und Prognosen zu sehen.

Um die Karte zu ändern : klicken Sie auf den grünen Tasten mit einem schwarzen Kreuz Zum Vergrößern, auf den grünen Button mit einem Gedankenstrich zu verkleinern, oder auf die grünen Pfeile für benachbarte Karten.


METAR-TAF: